createdAt,value
2019-01-29T00:01:46.087Z,93591.64
2019-01-29T00:04:15.627Z,93576.45
2019-01-29T00:06:45.159Z,93593.44
2019-01-29T00:09:14.719Z,93584.52
2019-01-29T00:11:44.236Z,93596.84
2019-01-29T00:14:13.764Z,93575.78
2019-01-29T00:16:43.249Z,93581.34
2019-01-29T00:19:12.751Z,93580.20
2019-01-29T00:21:42.242Z,93602.34
2019-01-29T00:24:11.754Z,93586.78
2019-01-29T00:26:41.260Z,93620.95
2019-01-29T00:29:10.801Z,93587.23
2019-01-29T00:31:40.321Z,93582.42
2019-01-29T00:34:09.915Z,93621.05
2019-01-29T00:36:39.445Z,93620.74
2019-01-29T00:39:09.762Z,93603.08
2019-01-29T00:41:39.292Z,93615.77
2019-01-29T00:44:08.795Z,93621.78
2019-01-29T00:46:38.289Z,93612.63
2019-01-29T00:49:07.812Z,93614.20
2019-01-29T00:51:37.341Z,93621.02
2019-01-29T00:54:07.108Z,93606.69
2019-01-29T00:56:36.630Z,93606.84
2019-01-29T00:59:06.164Z,93623.39
2019-01-29T01:01:35.679Z,93639.61
2019-01-29T01:04:05.803Z,93630.08
2019-01-29T01:06:35.322Z,93622.03
2019-01-29T01:09:08.366Z,93630.09
2019-01-29T01:11:37.869Z,93633.52
2019-01-29T01:14:07.513Z,93648.88
2019-01-29T01:16:36.987Z,93622.84
2019-01-29T01:19:06.458Z,93639.95
2019-01-29T01:21:35.951Z,93637.39
2019-01-29T01:24:05.558Z,93637.13
2019-01-29T01:26:35.046Z,93613.98
2019-01-29T01:29:04.655Z,93632.29
2019-01-29T01:31:34.168Z,93630.59
2019-01-29T01:34:03.667Z,93618.95
2019-01-29T01:36:33.188Z,93634.88
2019-01-29T01:39:07.634Z,93628.80
2019-01-29T01:41:37.162Z,93630.34
2019-01-29T01:44:06.631Z,93635.84
2019-01-29T01:46:36.122Z,93653.02
2019-01-29T01:49:05.704Z,93643.55
2019-01-29T01:51:35.163Z,93631.61
2019-01-29T01:54:04.768Z,93636.80
2019-01-29T01:56:34.320Z,93646.22
2019-01-29T01:59:03.813Z,93634.16
2019-01-29T02:01:33.358Z,93642.92
2019-01-29T02:04:02.862Z,93621.35
2019-01-29T02:06:32.337Z,93620.07
2019-01-29T02:09:01.818Z,93635.05
2019-01-29T02:11:31.326Z,93622.71
2019-01-29T02:14:00.847Z,93644.61
2019-01-29T02:16:30.347Z,93659.59
2019-01-29T02:18:59.831Z,93631.33
2019-01-29T02:21:29.307Z,93632.34
2019-01-29T02:23:58.810Z,93622.77
2019-01-29T02:26:28.296Z,93612.81
2019-01-29T02:28:57.774Z,93629.37
2019-01-29T02:31:27.340Z,93620.00
2019-01-29T02:33:56.835Z,93615.66
2019-01-29T02:36:26.319Z,93633.39
2019-01-29T02:38:55.833Z,93626.75
2019-01-29T02:41:25.346Z,93633.55
2019-01-29T02:43:54.865Z,93630.15
2019-01-29T02:46:24.442Z,93594.83
2019-01-29T02:48:53.945Z,93617.39
2019-01-29T02:51:23.440Z,93625.83
2019-01-29T02:53:52.907Z,93598.79
2019-01-29T02:56:22.416Z,93617.36
2019-01-29T02:58:51.904Z,93610.19
2019-01-29T03:01:21.415Z,93603.98
2019-01-29T03:03:50.922Z,93606.32
2019-01-29T03:06:20.482Z,93600.94
2019-01-29T03:08:49.983Z,93609.48
2019-01-29T03:11:19.606Z,93621.09
2019-01-29T03:13:49.160Z,93631.84
2019-01-29T03:16:19.016Z,93632.67
2019-01-29T03:18:48.536Z,93626.63
2019-01-29T03:21:18.023Z,93614.95
2019-01-29T03:23:47.516Z,93626.98
2019-01-29T03:26:16.982Z,93638.63
2019-01-29T03:28:46.543Z,93628.97
2019-01-29T03:31:16.059Z,93619.88
2019-01-29T03:33:45.553Z,93611.19
2019-01-29T03:36:15.100Z,93609.39
2019-01-29T03:38:44.597Z,93617.98
2019-01-29T03:41:14.126Z,93613.72
2019-01-29T03:43:43.620Z,93617.12
2019-01-29T03:46:13.150Z,93622.94
2019-01-29T03:48:42.652Z,93634.98
2019-01-29T03:51:12.425Z,93628.89
2019-01-29T03:53:42.071Z,93617.41
2019-01-29T03:56:11.542Z,93629.41
2019-01-29T03:58:41.052Z,93599.76
2019-01-29T04:01:10.660Z,93614.63
2019-01-29T04:03:40.176Z,93624.20
2019-01-29T04:06:09.755Z,93616.22
2019-01-29T04:08:39.252Z,93633.30
2019-01-29T04:11:08.768Z,93626.34
2019-01-29T04:13:38.279Z,93629.44
2019-01-29T04:16:07.921Z,93630.08
2019-01-29T04:18:37.448Z,93633.53
2019-01-29T04:21:06.993Z,93631.83
2019-01-29T04:23:36.526Z,93636.57
2019-01-29T04:26:06.062Z,93651.72
2019-01-29T04:28:35.534Z,93644.87
2019-01-29T04:31:05.040Z,93653.18
2019-01-29T04:33:34.513Z,93650.77
2019-01-29T04:36:04.107Z,93652.02
2019-01-29T04:38:33.632Z,93653.11
2019-01-29T04:41:03.760Z,93649.52
2019-01-29T04:43:33.259Z,93658.51
2019-01-29T04:46:02.809Z,93662.23
2019-01-29T04:48:32.330Z,93660.67
2019-01-29T04:51:01.834Z,93653.18
2019-01-29T04:53:31.715Z,93644.48
2019-01-29T04:56:01.241Z,93642.07
2019-01-29T04:58:30.748Z,93643.84
2019-01-29T05:01:00.253Z,93654.91
2019-01-29T05:03:29.782Z,93650.81
2019-01-29T05:05:59.322Z,93648.53
2019-01-29T05:08:28.893Z,93655.34
2019-01-29T05:10:58.388Z,93652.94
2019-01-29T05:13:27.891Z,93651.45
2019-01-29T05:15:57.417Z,93650.95
2019-01-29T05:18:26.885Z,93656.02
2019-01-29T05:20:56.364Z,93669.25
2019-01-29T05:23:25.921Z,93678.94
2019-01-29T05:25:55.454Z,93689.37
2019-01-29T05:28:24.945Z,93689.25
2019-01-29T05:30:54.537Z,93683.68
2019-01-29T05:33:24.061Z,93685.19
2019-01-29T05:35:53.574Z,93678.84
2019-01-29T05:38:23.077Z,93683.28
2019-01-29T05:40:52.580Z,93698.46
2019-01-29T05:43:22.128Z,93693.90
2019-01-29T05:45:51.604Z,93677.95
2019-01-29T05:48:21.075Z,93686.05
2019-01-29T05:50:50.579Z,93684.98
2019-01-29T05:53:20.076Z,93679.88
2019-01-29T05:55:49.620Z,93686.59
2019-01-29T05:58:19.185Z,93696.23
2019-01-29T06:00:48.712Z,93698.34
2019-01-29T06:03:18.227Z,93696.63
2019-01-29T06:05:47.730Z,93683.14
2019-01-29T06:08:17.305Z,93704.16
2019-01-29T06:10:46.804Z,93709.53
2019-01-29T06:13:16.619Z,93691.38
2019-01-29T06:15:46.133Z,93705.00
2019-01-29T06:18:15.744Z,93717.09
2019-01-29T06:20:50.215Z,93706.70
2019-01-29T06:23:19.796Z,93713.73
2019-01-29T06:25:49.335Z,93713.02
2019-01-29T06:28:18.868Z,93693.47
2019-01-29T06:30:48.396Z,93691.98
2019-01-29T06:33:17.912Z,93706.79
2019-01-29T06:35:47.493Z,93711.61
2019-01-29T06:38:17.017Z,93716.02
2019-01-29T06:40:46.611Z,93726.27
2019-01-29T06:43:16.088Z,93720.27
2019-01-29T06:45:46.616Z,93717.79
2019-01-29T06:48:16.727Z,93714.46
2019-01-29T06:50:46.203Z,93722.19
2019-01-29T06:53:15.736Z,93730.98
2019-01-29T06:55:45.288Z,93733.84
2019-01-29T06:58:16.506Z,93718.86
2019-01-29T07:00:46.048Z,93707.70
2019-01-29T07:03:18.547Z,93700.09
2019-01-29T07:05:48.027Z,93708.08
2019-01-29T07:08:17.527Z,93714.66
2019-01-29T07:10:47.043Z,93719.97
2019-01-29T07:13:16.562Z,93713.17
2019-01-29T07:16:20.478Z,93716.80
2019-01-29T07:19:08.960Z,93728.89
2019-01-29T07:21:38.479Z,93736.49
2019-01-29T07:24:08.146Z,93727.54
2019-01-29T07:26:37.655Z,93729.69
2019-01-29T07:29:07.136Z,93731.06
2019-01-29T07:31:36.648Z,93726.09
2019-01-29T07:34:06.174Z,93742.08
2019-01-29T07:36:35.741Z,93741.08
2019-01-29T07:39:08.755Z,93741.16
2019-01-29T07:41:38.234Z,93736.88
2019-01-29T07:44:07.733Z,93736.69
2019-01-29T07:46:37.269Z,93730.98
2019-01-29T07:49:06.796Z,93721.70
2019-01-29T07:51:36.455Z,93727.97
2019-01-29T07:54:06.101Z,93739.28
2019-01-29T07:56:35.706Z,93739.80
2019-01-29T07:59:05.332Z,93741.89
2019-01-29T08:01:35.337Z,93745.50
2019-01-29T08:04:05.233Z,93753.92
2019-01-29T08:06:34.764Z,93759.15
2019-01-29T08:09:06.919Z,93756.44
2019-01-29T08:11:36.483Z,93751.63
2019-01-29T08:14:06.203Z,93753.51
2019-01-29T08:16:35.731Z,93750.49
2019-01-29T08:19:05.734Z,93749.08
2019-01-29T08:21:35.238Z,93754.50
2019-01-29T08:24:04.790Z,93756.86
2019-01-29T08:26:34.573Z,93756.06
2019-01-29T08:29:04.903Z,93770.29
2019-01-29T08:31:34.462Z,93768.09
2019-01-29T08:34:04.385Z,93772.67
2019-01-29T08:36:33.868Z,93776.69
2019-01-29T08:39:05.037Z,93773.55
2019-01-29T08:41:34.632Z,93773.28
2019-01-29T08:44:04.292Z,93777.27
2019-01-29T08:46:33.817Z,93774.59
2019-01-29T08:49:03.407Z,93790.00
2019-01-29T08:51:32.958Z,93785.26
2019-01-29T08:54:02.501Z,93784.79
2019-01-29T08:56:32.179Z,93802.95
2019-01-29T08:59:01.669Z,93798.69
2019-01-29T09:01:31.280Z,93793.28
2019-01-29T09:04:00.848Z,93805.31
2019-01-29T09:06:30.512Z,93802.89
2019-01-29T09:08:59.977Z,93807.69
2019-01-29T09:11:29.563Z,93818.22
2019-01-29T09:13:59.065Z,93820.91
2019-01-29T09:16:28.600Z,93806.91
2019-01-29T09:18:58.129Z,93826.44
2019-01-29T09:21:27.876Z,93822.03
2019-01-29T09:23:57.532Z,93808.62
2019-01-29T09:26:27.073Z,93821.14
2019-01-29T09:28:56.568Z,93829.56
2019-01-29T09:31:26.147Z,93838.16
2019-01-29T09:33:55.673Z,93830.24
2019-01-29T09:36:25.231Z,93832.95
2019-01-29T09:38:54.857Z,93829.73
2019-01-29T09:41:24.387Z,93824.31
2019-01-29T09:43:53.934Z,93819.19
2019-01-29T09:46:23.466Z,93812.30
2019-01-29T09:48:53.015Z,93807.41
2019-01-29T09:51:22.607Z,93819.92
2019-01-29T09:53:52.457Z,93821.73
2019-01-29T09:56:22.046Z,93813.02
2019-01-29T09:58:51.549Z,93802.81
2019-01-29T10:01:21.146Z,93806.51
2019-01-29T10:03:50.693Z,93799.70
2019-01-29T10:06:20.323Z,93798.90
2019-01-29T10:08:50.016Z,93798.61
2019-01-29T10:11:19.723Z,93797.79
2019-01-29T10:13:49.264Z,93794.19
2019-01-29T10:16:18.804Z,93790.06
2019-01-29T10:18:51.374Z,93788.55
2019-01-29T10:21:21.080Z,93785.02
2019-01-29T10:23:50.620Z,93781.60
2019-01-29T10:26:20.333Z,93780.73
2019-01-29T10:28:49.938Z,93777.11
2019-01-29T10:31:19.453Z,93773.13
2019-01-29T10:33:48.964Z,93775.70
2019-01-29T10:36:18.533Z,93771.29
2019-01-29T10:38:48.080Z,93761.06
2019-01-29T10:41:17.629Z,93758.19
2019-01-29T10:43:47.179Z,93754.64
2019-01-29T10:46:16.770Z,93766.75
2019-01-29T10:48:46.372Z,93765.89
2019-01-29T10:51:16.088Z,93756.81
2019-01-29T10:53:45.894Z,93754.00
2019-01-29T10:56:15.425Z,93761.80
2019-01-29T10:58:44.935Z,93761.32
2019-01-29T11:01:14.687Z,93742.07
2019-01-29T11:03:44.370Z,93748.86
2019-01-29T11:06:13.905Z,93745.38
2019-01-29T11:08:43.525Z,93732.80
2019-01-29T11:11:13.020Z,93740.17
2019-01-29T11:13:42.509Z,93740.38
2019-01-29T11:16:12.378Z,93735.62
2019-01-29T11:18:41.961Z,93734.05
2019-01-29T11:21:11.474Z,93736.47
2019-01-29T11:23:40.990Z,93730.94
2019-01-29T11:26:10.627Z,93725.12
2019-01-29T11:28:40.175Z,93721.97
2019-01-29T11:31:09.709Z,93718.78
2019-01-29T11:33:39.280Z,93721.97
2019-01-29T11:36:08.808Z,93718.92
2019-01-29T11:38:38.355Z,93718.69
2019-01-29T11:41:08.031Z,93718.00
2019-01-29T11:43:37.544Z,93715.95
2019-01-29T11:46:07.299Z,93714.69
2019-01-29T11:48:36.828Z,93719.94
2019-01-29T11:51:06.387Z,93713.11
2019-01-29T11:53:35.915Z,93723.94
2019-01-29T11:56:05.992Z,93729.22
2019-01-29T11:58:35.548Z,93725.93
2019-01-29T12:01:07.387Z,93729.61
2019-01-29T12:03:36.931Z,93729.28
2019-01-29T12:06:06.766Z,93728.52
2019-01-29T12:08:36.615Z,93731.55
2019-01-29T12:11:06.391Z,93734.20
2019-01-29T12:13:36.085Z,93730.80
2019-01-29T12:16:10.333Z,93730.20
2019-01-29T12:18:40.006Z,93735.11
2019-01-29T12:21:09.536Z,93735.70
2019-01-29T12:23:42.591Z,93730.80
2019-01-29T12:26:13.262Z,93733.41
2019-01-29T12:28:43.444Z,93734.34
2019-01-29T12:31:13.014Z,93726.66
2019-01-29T12:33:42.598Z,93731.98
2019-01-29T12:36:12.112Z,93729.20
2019-01-29T12:38:41.677Z,93736.05
2019-01-29T12:41:11.178Z,93730.54
2019-01-29T12:43:40.677Z,93733.11
2019-01-29T12:46:10.228Z,93734.31
2019-01-29T12:48:39.758Z,93722.65
2019-01-29T12:51:16.734Z,93722.60
2019-01-29T12:53:46.764Z,93721.61
2019-01-29T12:56:21.382Z,93719.91
2019-01-29T12:58:47.587Z,93726.88
2019-01-29T13:01:17.108Z,93717.03
2019-01-29T13:03:46.645Z,93718.75
2019-01-29T13:06:16.126Z,93725.43
2019-01-29T13:08:45.675Z,93719.16
2019-01-29T13:11:15.234Z,93717.98
2019-01-29T13:13:44.840Z,93723.76
2019-01-29T13:16:14.399Z,93724.12
2019-01-29T13:18:43.957Z,93725.58
2019-01-29T13:21:15.951Z,93721.55
2019-01-29T13:23:45.502Z,93714.13
2019-01-29T13:26:15.228Z,93716.48
2019-01-29T13:28:45.158Z,93713.27
2019-01-29T13:31:14.689Z,93718.55
2019-01-29T13:33:44.129Z,93719.84
2019-01-29T13:36:13.663Z,93718.70
2019-01-29T13:38:43.163Z,93712.87
2019-01-29T13:41:12.683Z,93718.20
2019-01-29T13:43:42.316Z,93719.80
2019-01-29T13:46:11.851Z,93725.94
2019-01-29T13:48:41.598Z,93729.23
2019-01-29T13:51:11.239Z,93735.52
2019-01-29T13:53:41.085Z,93735.13
2019-01-29T13:56:10.902Z,93734.31
2019-01-29T13:58:40.459Z,93730.11
2019-01-29T14:01:10.158Z,93731.11
2019-01-29T14:03:39.756Z,93729.67
2019-01-29T14:06:09.324Z,93727.56
2019-01-29T14:08:38.889Z,93731.88
2019-01-29T14:11:08.459Z,93733.68
2019-01-29T14:13:38.038Z,93737.25
2019-01-29T14:16:10.854Z,93740.83
2019-01-29T14:18:40.383Z,93740.60
2019-01-29T14:21:09.859Z,93743.71
2019-01-29T14:23:39.413Z,93742.30
2019-01-29T14:26:08.927Z,93739.53
2019-01-29T14:28:38.522Z,93732.11
2019-01-29T14:31:08.087Z,93725.25
2019-01-29T14:33:37.683Z,93729.73
2019-01-29T14:36:16.229Z,93731.38
2019-01-29T14:39:05.983Z,93732.88
2019-01-29T14:41:36.152Z,93732.28
2019-01-29T14:44:08.256Z,93729.17
2019-01-29T14:46:38.137Z,93732.84
2019-01-29T14:49:07.644Z,93727.63
2019-01-29T14:51:37.339Z,93728.66
2019-01-29T14:54:06.961Z,93722.64
2019-01-29T14:56:36.517Z,93720.50
2019-01-29T14:59:06.127Z,93720.20
2019-01-29T15:01:35.890Z,93720.30
2019-01-29T15:04:05.544Z,93715.83
2019-01-29T15:06:35.797Z,93719.90
2019-01-29T15:09:11.071Z,93717.19
2019-01-29T15:11:40.660Z,93721.16
2019-01-29T15:14:10.219Z,93721.30
2019-01-29T15:17:04.730Z,93722.75
2019-01-29T15:19:35.081Z,93710.67
2019-01-29T15:22:08.958Z,93714.52
2019-01-29T15:24:41.592Z,93714.66
2019-01-29T15:27:11.236Z,93718.14
2019-01-29T15:29:40.776Z,93724.61
2019-01-29T15:32:10.406Z,93727.09
2019-01-29T15:34:43.083Z,93729.77
2019-01-29T15:37:12.635Z,93733.75
2019-01-29T15:39:42.173Z,93727.13
2019-01-29T15:42:11.731Z,93727.03
2019-01-29T15:44:41.215Z,93728.13
2019-01-29T15:47:10.831Z,93722.72
2019-01-29T15:49:40.362Z,93726.94
2019-01-29T15:52:09.938Z,93724.16
2019-01-29T15:54:39.537Z,93721.65
2019-01-29T15:57:14.074Z,93717.23
2019-01-29T15:59:43.117Z,93715.20
2019-01-29T16:02:11.644Z,93713.00
2019-01-29T16:04:41.168Z,93716.50
2019-01-29T16:07:10.710Z,93718.67
2019-01-29T16:09:40.232Z,93725.33
2019-01-29T16:12:09.842Z,93720.64
2019-01-29T16:14:39.835Z,93722.85
2019-01-29T16:17:09.429Z,93723.16
2019-01-29T16:19:38.940Z,93721.84
2019-01-29T16:22:08.567Z,93720.34
2019-01-29T16:24:38.204Z,93722.95
2019-01-29T16:27:07.713Z,93717.86
2019-01-29T16:29:37.263Z,93716.83
2019-01-29T16:32:06.822Z,93721.66
2019-01-29T16:34:36.388Z,93728.89
2019-01-29T16:37:05.949Z,93724.10
2019-01-29T16:39:35.536Z,93724.79
2019-01-29T16:42:05.223Z,93720.58
2019-01-29T16:44:34.729Z,93718.79
2019-01-29T16:47:04.245Z,93720.59
2019-01-29T16:49:33.897Z,93718.98
2019-01-29T16:52:03.457Z,93723.61
2019-01-29T16:54:33.032Z,93724.19
2019-01-29T16:57:02.655Z,93722.67
2019-01-29T16:59:32.279Z,93712.57
2019-01-29T17:02:01.850Z,93708.78
2019-01-29T17:04:31.406Z,93708.58
2019-01-29T17:07:00.940Z,93707.47
2019-01-29T17:09:30.491Z,93706.69
2019-01-29T17:12:00.097Z,93702.16
2019-01-29T17:14:29.675Z,93706.17
2019-01-29T17:16:59.245Z,93703.97
2019-01-29T17:19:28.784Z,93697.67
2019-01-29T17:21:58.424Z,93701.77
2019-01-29T17:24:27.932Z,93701.45
2019-01-29T17:27:00.265Z,93709.16
2019-01-29T17:29:29.845Z,93702.37
2019-01-29T17:31:59.365Z,93697.75
2019-01-29T17:34:28.998Z,93698.73
2019-01-29T17:36:58.522Z,93697.34
2019-01-29T17:39:28.083Z,93696.31
2019-01-29T17:41:57.625Z,93694.21
2019-01-29T17:44:27.160Z,93693.03
2019-01-29T17:46:56.686Z,93695.52
2019-01-29T17:49:26.203Z,93692.21
2019-01-29T17:51:55.779Z,93695.42
2019-01-29T17:54:25.302Z,93693.11
2019-01-29T17:56:54.786Z,93695.12
2019-01-29T17:59:24.315Z,93695.31
2019-01-29T18:01:53.884Z,93682.97
2019-01-29T18:04:23.438Z,93683.67
2019-01-29T18:06:53.147Z,93680.36
2019-01-29T18:09:23.155Z,93673.98
2019-01-29T18:11:52.736Z,93676.19
2019-01-29T18:14:22.311Z,93676.05
2019-01-29T18:16:53.312Z,93677.36
2019-01-29T18:19:23.318Z,93673.55
2019-01-29T18:21:57.000Z,93671.25
2019-01-29T18:24:25.458Z,93665.27
2019-01-29T18:26:55.338Z,93668.07
2019-01-29T18:29:25.026Z,93665.86
2019-01-29T18:31:55.012Z,93677.69
2019-01-29T18:34:24.625Z,93675.45
2019-01-29T18:36:54.516Z,93668.97
2019-01-29T18:39:24.199Z,93664.94
2019-01-29T18:41:54.225Z,93681.66
2019-01-29T18:44:24.734Z,93676.55
2019-01-29T18:46:54.294Z,93670.75
2019-01-29T18:49:26.911Z,93670.02
2019-01-29T18:51:56.519Z,93682.59
2019-01-29T18:54:26.148Z,93680.80
2019-01-29T18:56:55.962Z,93681.72
2019-01-29T18:59:25.517Z,93672.53
2019-01-29T19:01:55.037Z,93677.33
2019-01-29T19:04:24.569Z,93670.80
2019-01-29T19:06:54.126Z,93672.81
2019-01-29T19:09:23.655Z,93678.02
2019-01-29T19:11:53.196Z,93682.75
2019-01-29T19:14:22.942Z,93674.74
2019-01-29T19:16:52.536Z,93675.33
2019-01-29T19:19:24.790Z,93673.42
2019-01-29T19:21:54.476Z,93667.25
2019-01-29T19:24:24.455Z,93660.05
2019-01-29T19:26:55.639Z,93656.53
2019-01-29T19:29:27.807Z,93654.83
2019-01-29T19:31:59.548Z,93650.23
2019-01-29T19:34:29.051Z,93650.45
2019-01-29T19:37:00.353Z,93642.42
2019-01-29T19:39:30.290Z,93644.04
2019-01-29T19:42:00.060Z,93642.53
2019-01-29T19:44:29.659Z,93645.01
2019-01-29T19:46:59.290Z,93648.62
2019-01-29T19:49:28.985Z,93646.72
2019-01-29T19:51:58.526Z,93640.59
2019-01-29T19:54:28.057Z,93641.80
2019-01-29T19:56:57.632Z,93632.90
2019-01-29T19:59:27.655Z,93636.48
2019-01-29T20:01:57.868Z,93638.50
2019-01-29T20:04:27.609Z,93638.67
2019-01-29T20:06:57.357Z,93638.56
2019-01-29T20:09:27.470Z,93636.28
2019-01-29T20:11:57.076Z,93632.27
2019-01-29T20:14:26.706Z,93637.16
2019-01-29T20:16:57.650Z,93632.26
2019-01-29T20:19:27.367Z,93637.94
2019-01-29T20:21:57.066Z,93631.83
2019-01-29T20:24:26.870Z,93624.92
2019-01-29T20:26:56.386Z,93614.70
2019-01-29T20:29:25.947Z,93612.00
2019-01-29T20:31:55.704Z,93613.20
2019-01-29T20:34:25.348Z,93612.06
2019-01-29T20:36:55.408Z,93603.75
2019-01-29T20:39:34.469Z,93600.85
2019-01-29T20:41:56.364Z,93597.11
2019-01-29T20:44:25.998Z,93598.31
2019-01-29T20:46:55.518Z,93595.34
2019-01-29T20:49:25.044Z,93601.15
2019-01-29T20:51:54.752Z,93599.84
2019-01-29T20:54:24.303Z,93590.03
2019-01-29T20:56:53.860Z,93593.34
2019-01-29T20:59:23.424Z,93593.44
2019-01-29T21:01:52.942Z,93587.23
2019-01-29T21:04:22.548Z,93590.33
2019-01-29T21:06:52.035Z,93588.42
2019-01-29T21:09:21.571Z,93576.30
2019-01-29T21:11:51.104Z,93579.11
2019-01-29T21:14:20.624Z,93576.30
2019-01-29T21:21:23.278Z,93569.13
2019-01-29T21:23:52.781Z,93568.56
2019-01-29T21:26:22.337Z,93569.27
2019-01-29T21:28:51.831Z,93562.86
2019-01-29T21:31:21.344Z,93568.13
2019-01-29T21:33:50.874Z,93564.62
2019-01-29T21:36:20.388Z,93569.09
2019-01-29T21:38:49.976Z,93568.13
2019-01-29T21:41:19.611Z,93566.09
2019-01-29T21:43:49.080Z,93561.52
2019-01-29T21:46:18.587Z,93562.88
2019-01-29T21:48:48.114Z,93555.08
2019-01-29T21:51:17.608Z,93550.37
2019-01-29T21:53:47.120Z,93558.67
2019-01-29T21:56:17.106Z,93556.07
2019-01-29T21:58:46.635Z,93561.84
2019-01-29T22:01:18.413Z,93555.97
2019-01-29T22:03:47.918Z,93549.27
2019-01-29T22:06:17.537Z,93543.55
2019-01-29T22:08:47.070Z,93538.70
2019-01-29T22:11:16.605Z,93537.91
2019-01-29T22:13:46.142Z,93538.24
2019-01-29T22:16:15.652Z,93540.34
2019-01-29T22:18:45.144Z,93542.25
2019-01-29T22:21:14.644Z,93547.06
2019-01-29T22:23:44.141Z,93553.17
2019-01-29T22:26:13.644Z,93549.87
2019-01-29T22:28:43.186Z,93538.58
2019-01-29T22:31:12.709Z,93535.04
2019-01-29T22:33:42.226Z,93535.88
2019-01-29T22:36:11.747Z,93527.36
2019-01-29T22:38:41.248Z,93525.56
2019-01-29T22:41:10.818Z,93531.17
2019-01-29T22:43:40.348Z,93525.66
2019-01-29T22:46:10.268Z,93519.66
2019-01-29T22:48:39.837Z,93515.52
2019-01-29T22:51:09.357Z,93512.48
2019-01-29T22:53:38.850Z,93514.52
2019-01-29T22:56:08.347Z,93510.09
2019-01-29T22:58:37.881Z,93506.47
2019-01-29T23:01:22.445Z,93501.63
2019-01-29T23:04:19.264Z,93499.23
2019-01-29T23:07:21.898Z,93488.85
2019-01-29T23:09:51.427Z,93494.36
2019-01-29T23:12:20.976Z,93485.78
2019-01-29T23:14:50.550Z,93493.33
2019-01-29T23:17:20.052Z,93494.05
2019-01-29T23:19:50.657Z,93486.17
2019-01-29T23:22:20.154Z,93490.75
2019-01-29T23:24:49.835Z,93494.18
2019-01-29T23:27:19.316Z,93495.67
2019-01-29T23:29:48.812Z,93490.69
2019-01-29T23:32:18.308Z,93495.48
2019-01-29T23:34:47.957Z,93497.98
2019-01-29T23:37:17.486Z,93491.28
2019-01-29T23:39:47.020Z,93491.06
2019-01-29T23:42:16.541Z,93487.05
2019-01-29T23:44:46.083Z,93487.09
2019-01-29T23:47:15.613Z,93476.17
2019-01-29T23:49:45.237Z,93466.78
2019-01-29T23:52:14.770Z,93467.78
2019-01-29T23:54:44.253Z,93467.68
2019-01-29T23:57:13.757Z,93473.19
2019-01-29T23:59:53.331Z,93477.37
